Dalton, Ohio
Current Conditions -  °F | °C
As of 11:56 AM on Thursday 30 Oct 2014 (Local Time) from KBJJ Reporting Station
Overcast Overcast  
Wind Chill: 44°   Ceiling: 2700
Heat Index: 47°   Visibility: 10mi
Dew Point: 37°   Wind: 7mph
Humidity: 68%   Direction: 320°NW
Pressure: 30.14"   Gusts: NA
Location:  40.8°N, 81.7°W
Report Text: KBJJ 301556Z AUTO 32006KT 10SM SCT021 BKN027 OVC036 08/03 A3014 RMK AO2 SLP210 T00830028 TSNO
Loading
Personal Weather Stations






























Interactive Weather Map
Tropical Storm Tracking
New forecast layout! Learn more

10-Day Weather Forecast

Advertisements
Track Severe Weather on mobile